Impacts METAR Board
IDs:

KBDR - Bridgeport/Sikorsky, CT, US

Updated at: 2000 UTC 20 Jul 2018
Potential Impact None Slight Moderate High
Time 20/08Z 20/09Z 20/10Z 20/11Z 20/12Z 20/13Z 20/14Z 20/15Z 20/16Z 20/17Z 20/18Z 20/19Z 20/20Z
Temp66 64 64 67 70 72 74 76 76 78 78 80 80
Dewpt60 60 59 61 63 64 64 66 66 62 64 52 56
Altim30.14 30.14 30.15 30.16 30.17 30.17 30.18 30.18 30.18 30.17 30.16 30.15 30.14
VIS10 10 10 10 10 10 10 10 10 10 10 10 10
CIG-- -- -- -- -- -- -- -- -- -- -- -- --
CoverCLRCLRCLRCLRCLRCLRCLRCLRCLRCLRCLRCLRCLR
FltCatVFRVFRVFRVFRVFRVFRVFRVFRVFRVFRVFRVFRVFR
WX--------------------------
WDir103503506030100100140150150150140150
WSpd3 4 3 3 3 4 6 9 10 4 10 6 7
WGst-- -- -- -- -- -- -- -- -- -- -- -- --
Raw hourly METARs
KBDR 200752Z AUTO 01003KT 10SM CLR 19/16 A3014 RMK AO2 SLP207 T01890156
KBDR 200852Z AUTO 35004KT 10SM CLR 18/16 A3014 RMK AO2 SLP207 T01780156 52003
KBDR 200952Z AUTO 35003KT 10SM CLR 18/15 A3015 RMK AO2 SLP210 T01780150
KBDR 201052Z 06003KT 10SM CLR 19/16 A3016 RMK AO2 SLP213 T01940161
KBDR 201152Z 03003KT 10SM CLR 21/17 A3017 RMK AO2 SLP216 T02110172 10211 20172 52008
KBDR 201252Z 10004KT 10SM CLR 22/18 A3017 RMK AO2 SLP216 T02220178
KBDR 201352Z 10006KT 10SM CLR 23/18 A3018 RMK AO2 SLP218 T02330178
KBDR 201452Z 14009KT 10SM CLR 24/19 A3018 RMK AO2 SLP219 T02440189 52003
KBDR 201552Z 15010KT 10SM CLR 24/19 A3018 RMK AO2 SLP219 T02440189
KBDR 201652Z 15004KT 10SM CLR 26/17 A3017 RMK AO2 SLP217 T02560167
KBDR 201752Z 15010KT 10SM CLR 26/18 A3016 RMK AO2 SLP214 T02560178 10267 20211 58005
KBDR 201852Z 14006KT 10SM CLR 27/11 A3015 RMK AO2 SLP210 T02670111
KBDR 201952Z 15007KT 10SM CLR 27/13 A3014 RMK AO2 SLP207 T02670133



Page loaded:  20:24 UTC  |   01:24 PM Pacific  |   02:24 PM Mountain  |   03:24 PM Central  |   04:24 PM Eastern

 

ADVISORIES

FORECASTS

FORECASTS

OBSERVATIONS

USER TOOLS

ABOUT US